Time;durP1;ratioP1;P1;durP2;ratioP2;P2;SDS_P1;SDS_P2;PMS_P1;PMS_P2;Temp;Humidity;BMP_temperature;BMP_pressure;BME280_temperature;BME280_humidity;BME280_pressure;Samples;Min_cycle;Max_cycle;Signal;HPM_P1;HPM_P2
2023/04/17 00:01:32;;;;;;;33.00;19.70;;;;;;;10.65;nan;99939.88;5013066;28;20198;-77
2023/04/17 00:03:58;;;;;;;26.50;17.17;;;;;;;10.61;nan;99941.81;5012772;28;20206;-77
2023/04/17 00:06:26;;;;;;;30.40;17.93;;;;;;;10.59;nan;99935.81;5014628;28;20207;-77
2023/04/17 00:08:51;;;;;;;27.73;18.75;;;;;;;10.58;nan;99937.56;5019695;28;20248;-77
2023/04/17 00:11:17;;;;;;;27.47;17.67;;;;;;;10.56;nan;99936.84;5014306;28;20226;-77
2023/04/17 00:13:42;;;;;;;23.17;17.10;;;;;;;10.56;nan;99934.22;5019682;28;20226;-77
2023/04/17 00:16:12;;;;;;;31.00;17.53;;;;;;;10.58;nan;99928.84;5012322;28;20727;-77
2023/04/17 00:18:38;;;;;;;31.38;16.77;;;;;;;10.60;nan;99927.84;5019309;28;20464;-76
2023/04/17 00:21:04;;;;;;;31.33;17.45;;;;;;;10.64;nan;99925.91;5017218;28;20194;-77
2023/04/17 00:23:29;;;;;;;24.60;17.40;;;;;;;10.66;nan;99923.16;5014921;28;20225;-77
2023/04/17 00:25:54;;;;;;;25.80;15.47;;;;;;;10.67;nan;99928.34;5020531;28;20240;-77
2023/04/17 00:28:20;;;;;;;24.03;15.93;;;;;;;10.66;nan;99929.25;5018564;28;20237;-77
2023/04/17 00:30:45;;;;;;;24.57;16.33;;;;;;;10.69;nan;99925.59;5013070;28;20213;-77
2023/04/17 00:33:11;;;;;;;26.20;17.67;;;;;;;10.70;nan;99929.94;5000481;28;20194;-76
2023/04/17 00:35:36;;;;;;;27.37;16.40;;;;;;;10.70;nan;99924.69;5001250;28;20195;-77
2023/04/17 00:38:02;;;;;;;28.23;18.40;;;;;;;10.68;nan;99930.00;5001886;28;20481;-77
2023/04/17 00:40:27;;;;;;;31.30;19.67;;;;;;;10.68;nan;99922.13;5000193;28;20226;-77
2023/04/17 00:42:58;;;;;;;33.50;18.20;;;;;;;10.68;nan;99926.53;4997324;28;20214;-76
2023/04/17 00:45:24;;;;;;;27.40;17.33;;;;;;;10.68;nan;99923.91;4993651;28;20210;-76
2023/04/17 00:47:51;;;;;;;27.70;15.67;;;;;;;10.68;nan;99923.91;5002592;28;20618;-76
2023/04/17 00:50:17;;;;;;;29.98;17.27;;;;;;;10.67;nan;99920.47;5003054;28;20755;-76
2023/04/17 00:52:43;;;;;;;31.67;18.70;;;;;;;10.68;nan;99913.41;4985397;28;20190;-76
2023/04/17 00:55:09;;;;;;;29.67;17.60;;;;;;;10.67;nan;99915.19;4986376;28;20195;-76
2023/04/17 00:57:35;;;;;;;30.83;18.63;;;;;;;10.67;nan;99915.19;4987662;28;20253;-76
2023/04/17 01:00:00;;;;;;;27.93;18.47;;;;;;;10.66;nan;99913.50;5004540;28;20743;-76
2023/04/17 01:02:26;;;;;;;32.13;16.50;;;;;;;10.66;nan;99905.59;5003889;28;20202;-76
2023/04/17 01:04:52;;;;;;;27.77;17.47;;;;;;;10.65;nan;99903.09;4990079;28;20199;-76
2023/04/17 01:07:17;;;;;;;29.67;17.87;;;;;;;10.60;nan;99904.19;4995643;28;20481;-76
2023/04/17 01:09:43;;;;;;;25.60;17.00;;;;;;;10.59;nan;99899.88;5004776;28;20214;-77
2023/04/17 01:12:19;;;;;;;35.93;21.57;;;;;;;10.60;nan;99895.47;5017465;28;20656;-76
2023/04/17 01:14:46;;;;;;;30.90;18.73;;;;;;;10.58;nan;99890.28;5002974;28;20200;-76
2023/04/17 01:17:14;;;;;;;28.88;18.08;;;;;;;10.58;nan;99894.72;5018637;28;20206;-76
2023/04/17 01:19:40;;;;;;;31.48;19.63;;;;;;;10.59;nan;99885.91;5016229;28;20203;-76
2023/04/17 01:22:06;;;;;;;29.67;18.17;;;;;;;10.57;nan;99887.78;4997273;28;20689;-76
2023/04/17 01:24:32;;;;;;;28.45;17.83;;;;;;;10.55;nan;99882.59;4998565;28;20207;-76
2023/04/17 01:26:57;;;;;;;24.67;18.23;;;;;;;10.55;nan;99882.59;5019845;28;20213;-76
2023/04/17 01:29:22;;;;;;;26.83;19.77;;;;;;;10.55;nan;99881.75;5016601;28;20644;-76
2023/04/17 01:31:49;;;;;;;34.83;21.40;;;;;;;10.54;nan;99880.09;4985833;28;20673;-76
2023/04/17 01:34:14;;;;;;;37.80;19.00;;;;;;;10.53;nan;99889.75;4999520;28;20280;-76
2023/04/17 01:36:40;;;;;;;30.77;18.80;;;;;;;10.54;nan;99893.22;5009498;28;20215;-77
2023/04/17 01:39:06;;;;;;;29.27;18.87;;;;;;;10.53;nan;99881.00;5007592;28;20225;-76
2023/04/17 01:41:31;;;;;;;28.00;18.23;;;;;;;10.54;nan;99877.47;4994270;28;20194;-76
2023/04/17 01:43:57;;;;;;;23.13;16.90;;;;;;;10.55;nan;99879.13;5012373;28;20198;-77
2023/04/17 01:46:22;;;;;;;35.70;20.73;;;;;;;10.55;nan;99889.63;5006575;28;20207;-77
2023/04/17 01:48:48;;;;;;;36.40;19.63;;;;;;;10.55;nan;99884.38;4988353;28;20593;-77
2023/04/17 01:51:13;;;;;;;31.20;20.60;;;;;;;10.54;nan;99883.53;5001725;28;20217;-77
2023/04/17 01:53:39;;;;;;;31.83;22.10;;;;;;;10.51;nan;99889.00;5004060;28;20598;-77
2023/04/17 01:56:05;;;;;;;26.75;18.20;;;;;;;10.48;nan;99888.34;5004659;28;20229;-77
2023/04/17 01:58:30;;;;;;;34.50;19.80;;;;;;;10.47;nan;99879.59;4992713;28;20219;-77
2023/04/17 02:00:56;;;;;;;35.87;18.77;;;;;;;10.48;nan;99893.59;4990604;28;20888;-77
2023/04/17 02:03:23;;;;;;;34.93;21.77;;;;;;;10.48;nan;99883.09;5002930;28;20210;-77
2023/04/17 02:05:49;;;;;;;38.50;21.80;;;;;;;10.48;nan;99880.47;5005143;28;20575;-76
2023/04/17 02:08:15;;;;;;;39.60;22.70;;;;;;;10.47;nan;99871.69;4991730;28;20230;-77
2023/04/17 02:10:41;;;;;;;31.30;18.47;;;;;;;10.48;nan;99870.78;5006163;28;20587;-77
2023/04/17 02:13:08;;;;;;;35.00;22.67;;;;;;;10.49;nan;99869.00;5006748;28;20259;-77
2023/04/17 02:15:34;;;;;;;36.58;22.05;;;;;;;10.47;nan;99863.81;5007688;28;20234;-77
2023/04/17 02:18:00;;;;;;;37.17;21.23;;;;;;;10.49;nan;99871.63;4991095;28;20206;-77
2023/04/17 02:20:26;;;;;;;34.40;21.40;;;;;;;10.47;nan;99866.44;5010584;28;20217;-77
2023/04/17 02:22:51;;;;;;;38.83;22.67;;;;;;;10.46;nan;99877.91;4984360;28;20231;-77
2023/04/17 02:25:17;;;;;;;33.00;20.43;;;;;;;10.44;nan;99864.00;4991123;28;20194;-77
2023/04/17 02:27:42;;;;;;;35.50;23.80;;;;;;;10.41;nan;99861.56;4990347;28;20780;-77
2023/04/17 02:30:08;;;;;;;34.90;22.70;;;;;;;10.40;nan;99865.16;4989682;28;20198;-77
2023/04/17 02:32:33;;;;;;;41.30;25.10;;;;;;;10.38;nan;99861.75;4984726;28;20280;-77
2023/04/17 02:34:59;;;;;;;42.07;22.63;;;;;;;10.39;nan;99864.28;4989712;28;20457;-76
2023/04/17 02:37:24;;;;;;;44.97;24.20;;;;;;;10.38;nan;99873.09;4991927;28;20199;-77
2023/04/17 02:39:52;;;;;;;40.60;25.67;;;;;;;10.37;nan;99874.03;4991115;28;20844;-77
2023/04/17 02:42:18;;;;;;;38.40;22.90;;;;;;;10.39;nan;99873.94;4989154;28;20707;-77
2023/04/17 02:44:45;;;;;;;41.93;26.70;;;;;;;10.39;nan;99877.41;4991253;28;20470;-77
2023/04/17 02:47:11;;;;;;;37.90;22.75;;;;;;;10.41;nan;99872.91;4994467;28;20221;-77
2023/04/17 02:49:36;;;;;;;36.93;23.63;;;;;;;10.43;nan;99874.63;4992083;28;20211;-77
2023/04/17 02:52:01;;;;;;;36.13;22.97;;;;;;;10.44;nan;99864.00;4991863;28;20660;-77
2023/04/17 02:54:27;;;;;;;41.83;24.47;;;;;;;10.45;nan;99867.47;4994689;28;20218;-76
2023/04/17 02:56:57;;;;;;;38.45;23.45;;;;;;;10.45;nan;99867.47;4994216;28;20199;-77
2023/04/17 02:59:25;;;;;;;38.20;24.75;;;;;;;10.48;nan;99868.16;4993532;28;20261;-77
2023/04/17 03:01:51;;;;;;;44.83;25.35;;;;;;;10.49;nan;99864.59;4992868;28;20541;-77
2023/04/17 03:04:18;;;;;;;43.72;25.08;;;;;;;10.48;nan;99865.53;4990765;28;20184;-77
2023/04/17 03:06:43;;;;;;;36.43;23.50;;;;;;;10.49;nan;99863.75;5006508;28;20261;-77
2023/04/17 03:09:11;;;;;;;42.03;24.97;;;;;;;10.50;nan;99865.44;4991817;28;20628;-77
2023/04/17 03:11:37;;;;;;;41.40;27.23;;;;;;;10.51;nan;99872.38;4991109;28;20227;-77
2023/04/17 03:14:02;;;;;;;38.33;25.50;;;;;;;10.52;nan;99864.41;4992220;28;20289;-77
2023/04/17 03:16:28;;;;;;;42.43;24.17;;;;;;;10.52;nan;99868.81;4994712;28;20205;-77
2023/04/17 03:18:56;;;;;;;38.75;23.58;;;;;;;10.50;nan;99863.63;4994776;28;20199;-77
2023/04/17 03:21:22;;;;;;;40.80;24.80;;;;;;;10.51;nan;99867.13;4991655;28;20257;-77
2023/04/17 03:23:48;;;;;;;40.25;26.33;;;;;;;10.51;nan;99861.88;4994712;28;20231;-77
2023/04/17 03:26:15;;;;;;;40.33;25.45;;;;;;;10.51;nan;99859.25;4994591;28;20889;-77
2023/04/17 03:28:40;;;;;;;45.77;25.60;;;;;;;10.51;nan;99861.88;4996533;28;20196;-77
2023/04/17 03:31:06;;;;;;;39.70;25.50;;;;;;;10.50;nan;99870.69;4989865;28;20342;-77
2023/04/17 03:33:32;;;;;;;37.85;24.23;;;;;;;10.48;nan;99864.69;4991188;28;20601;-77
2023/04/17 03:35:58;;;;;;;40.90;26.90;;;;;;;10.48;nan;99869.94;4994519;28;20287;-77
2023/04/17 03:38:23;;;;;;;44.20;24.47;;;;;;;10.45;nan;99865.72;4994211;28;20736;-77
2023/04/17 03:40:49;;;;;;;44.13;24.83;;;;;;;10.43;nan;99862.34;4987805;28;20274;-77
2023/04/17 03:43:14;;;;;;;39.33;24.57;;;;;;;10.41;nan;99861.56;4993500;28;20208;-77
2023/04/17 03:45:40;;;;;;;45.57;25.37;;;;;;;10.37;nan;99865.31;4993972;28;21395;-77
2023/04/17 03:48:06;;;;;;;40.87;24.70;;;;;;;10.35;nan;99872.44;4994637;28;20222;-76
2023/04/17 03:50:32;;;;;;;42.67;23.85;;;;;;;10.33;nan;99872.53;4994551;28;20870;-77
2023/04/17 03:52:59;;;;;;;44.05;25.55;;;;;;;10.29;nan;99873.66;4994895;28;20222;-77
2023/04/17 03:55:26;;;;;;;36.50;22.90;;;;;;;10.29;nan;99871.03;4992144;28;20633;-77
2023/04/17 03:57:52;;;;;;;38.92;25.50;;;;;;;10.29;nan;99870.16;4995463;28;20190;-77
2023/04/17 04:00:20;;;;;;;38.35;24.25;;;;;;;10.30;nan;99874.47;4993108;28;20238;-77
2023/04/17 04:02:50;;;;;;;47.63;25.27;;;;;;;10.29;nan;99862.28;5005059;28;20191;-77
2023/04/17 04:05:20;;;;;;;41.97;23.45;;;;;;;10.28;nan;99868.47;4994232;28;20204;-77
2023/04/17 04:07:46;;;;;;;34.33;20.73;;;;;;;10.27;nan;99869.38;4994568;28;20207;-77
2023/04/17 04:10:17;;;;;;;36.25;22.67;;;;;;;10.26;nan;99872.94;4996909;28;20253;-77
2023/04/17 04:12:42;;;;;;;40.20;22.83;;;;;;;10.26;nan;99872.94;4994229;28;20731;-77
2023/04/17 04:15:08;;;;;;;35.13;21.43;;;;;;;10.26;nan;99865.91;4992540;28;20644;-77
2023/04/17 04:17:34;;;;;;;43.67;23.20;;;;;;;10.27;nan;99872.88;4989407;28;20598;-77
2023/04/17 04:20:01;;;;;;;40.85;23.15;;;;;;;10.27;nan;99875.50;4990815;28;20192;-77
2023/04/17 04:22:28;;;;;;;39.17;23.50;;;;;;;10.26;nan;99878.19;4990172;28;20253;-77
2023/04/17 04:24:54;;;;;;;38.03;22.00;;;;;;;10.25;nan;99877.34;4991724;28;20774;-77
2023/04/17 04:27:26;;;;;;;34.60;22.23;;;;;;;10.24;nan;99878.28;4991531;28;20215;-77
2023/04/17 04:29:57;;;;;;;38.83;23.05;;;;;;;10.23;nan;99876.56;4989651;28;20213;-77
2023/04/17 04:32:26;;;;;;;38.15;23.13;;;;;;;10.20;nan;99866.25;4991520;28;20210;-77
2023/04/17 04:34:57;;;;;;;33.42;23.08;;;;;;;10.18;nan;99866.38;4992222;28;20197;-77
2023/04/17 04:37:28;;;;;;;35.20;24.20;;;;;;;10.14;nan;99870.09;4990950;28;20323;-77
2023/04/17 04:40:34;;;;;;;42.80;23.15;;;;;;;10.12;nan;99877.19;4994274;28;20214;-77
2023/04/17 04:42:49;;;;;;;34.45;23.15;;;;;;;10.10;nan;99886.09;4987833;28;20621;-77
2023/04/17 04:45:22;;;;;;;40.38;25.40;;;;;;;10.07;nan;99884.50;4989215;28;21070;-77
2023/04/17 04:47:47;;;;;;;37.40;22.40;;;;;;;10.06;nan;99889.84;4993377;28;20766;-77
2023/04/17 04:50:13;;;;;;;33.57;21.90;;;;;;;10.05;nan;99875.88;4994603;28;20480;-76
2023/04/17 04:52:39;;;;;;;32.50;20.45;;;;;;;10.04;nan;99889.06;4990399;28;20286;-76
2023/04/17 04:55:13;;;;;;;34.47;23.02;;;;;;;10.04;nan;99881.19;4988263;28;20556;-77
2023/04/17 04:57:44;;;;;;;33.72;22.83;;;;;;;10.04;nan;99883.81;4990801;28;20195;-77
2023/04/17 05:00:13;;;;;;;43.53;24.45;;;;;;;10.07;nan;99886.25;4992224;28;20298;-77
2023/04/17 05:02:41;;;;;;;37.63;22.92;;;;;;;10.06;nan;99885.41;4986306;28;20793;-77
2023/04/17 05:05:09;;;;;;;41.70;26.48;;;;;;;10.07;nan;99888.88;4988179;28;20198;-76
2023/04/17 05:07:35;;;;;;;43.17;24.70;;;;;;;10.07;nan;99884.50;4990565;28;20298;-77
2023/04/17 05:10:04;;;;;;;39.00;25.65;;;;;;;10.10;nan;99891.34;4987778;28;20323;-77
2023/04/17 05:12:33;;;;;;;42.53;24.02;;;;;;;10.11;nan;99893.03;4986305;28;20247;-77
2023/04/17 05:15:00;;;;;;;39.38;24.10;;;;;;;10.12;nan;99892.09;4983992;28;20704;-76
2023/04/17 05:17:28;;;;;;;35.03;23.08;;;;;;;10.12;nan;99897.34;4982810;28;20215;-77
2023/04/17 05:19:54;;;;;;;35.17;24.73;;;;;;;10.17;nan;99895.31;4985573;28;20207;-77
2023/04/17 05:22:21;;;;;;;45.05;24.92;;;;;;;10.20;nan;99895.97;4982660;28;20223;-77
2023/04/17 05:25:00;;;;;;;35.83;23.27;;;;;;;10.26;nan;99891.31;4984560;28;20195;-76
2023/04/17 05:27:26;;;;;;;37.37;22.33;;;;;;;10.29;nan;99894.66;4984669;28;20252;-77
2023/04/17 05:29:52;;;;;;;37.27;22.83;;;;;;;10.30;nan;99895.50;4986131;28;20203;-77
2023/04/17 05:32:18;;;;;;;38.70;23.23;;;;;;;10.32;nan;99891.00;4999759;28;20497;-77
2023/04/17 05:34:52;;;;;;;35.05;23.10;;;;;;;10.33;nan;99898.78;4984699;28;20281;-77
2023/04/17 05:37:21;;;;;;;44.30;28.05;;;;;;;10.36;nan;99889.88;4986000;28;20265;-77
2023/04/17 05:39:46;;;;;;;47.70;28.07;;;;;;;10.39;nan;99894.94;5004226;28;20271;-77
2023/04/17 05:42:12;;;;;;;39.90;26.10;;;;;;;10.40;nan;99894.88;5003401;28;20540;-77
2023/04/17 05:44:38;;;;;;;33.73;23.07;;;;;;;10.44;nan;99894.69;4987062;28;20229;-77
2023/04/17 05:47:04;;;;;;;41.13;23.03;;;;;;;10.48;nan;99897.06;4987186;28;20465;-77
2023/04/17 05:49:30;;;;;;;42.17;25.80;;;;;;;10.53;nan;99904.63;5006344;28;20459;-77
2023/04/17 05:51:56;;;;;;;38.78;26.67;;;;;;;10.57;nan;99908.78;4987903;28;20187;-77
2023/04/17 05:54:21;;;;;;;40.97;26.60;;;;;;;10.60;nan;99906.81;5006212;28;20205;-77
2023/04/17 05:56:48;;;;;;;43.40;25.17;;;;;;;10.68;nan;99903.75;4987566;28;20450;-77
2023/04/17 05:59:14;;;;;;;39.10;23.58;;;;;;;10.75;nan;99904.25;4985731;28;20690;-77
2023/04/17 06:01:42;;;;;;;39.05;24.95;;;;;;;10.80;nan;99908.28;4983582;28;20282;-77
2023/04/17 06:04:07;;;;;;;41.90;25.85;;;;;;;10.81;nan;99907.34;4987858;28;20667;-77
2023/04/17 06:06:33;;;;;;;43.07;23.80;;;;;;;10.83;nan;99900.22;4976584;28;20453;-77
2023/04/17 06:08:58;;;;;;;33.50;21.87;;;;;;;10.87;nan;99906.13;4980116;28;20206;-77
2023/04/17 06:11:24;;;;;;;40.47;26.33;;;;;;;10.90;nan;99902.47;4982543;28;20234;-77
2023/04/17 06:13:50;;;;;;;40.40;25.10;;;;;;;10.90;nan;99910.34;4987287;28;20238;-77
2023/04/17 06:16:17;;;;;;;40.08;24.70;;;;;;;10.91;nan;99906.78;4983933;28;20195;-77
2023/04/17 06:18:45;;;;;;;36.38;23.27;;;;;;;10.96;nan;99909.97;4985773;28;21169;-77
2023/04/17 06:21:11;;;;;;;37.87;23.00;;;;;;;11.00;nan;99906.22;4984636;28;20206;-78
2023/04/17 06:23:36;;;;;;;38.43;25.20;;;;;;;11.01;nan;99914.00;4988075;28;20215;-78
2023/04/17 06:26:01;;;;;;;37.10;24.30;;;;;;;11.06;nan;99916.38;5002092;28;20219;-77
2023/04/17 06:28:27;;;;;;;33.00;20.97;;;;;;;11.08;nan;99914.50;4985060;28;20205;-77
2023/04/17 06:30:54;;;;;;;37.85;21.42;;;;;;;11.12;nan;99904.63;4987168;28;21014;-77
2023/04/17 06:33:19;;;;;;;34.87;22.50;;;;;;;11.17;nan;99907.81;4986828;28;20194;-77
2023/04/17 06:35:45;;;;;;;34.13;21.87;;;;;;;11.24;nan;99911.78;5001831;28;20215;-77
2023/04/17 06:38:18;;;;;;;32.90;20.38;;;;;;;11.34;nan;99914.66;5002414;28;20454;-77
2023/04/17 06:40:45;;;;;;;30.93;22.63;;;;;;;11.37;nan;99909.22;5003767;28;20247;-77
2023/04/17 06:43:11;;;;;;;32.88;22.65;;;;;;;11.41;nan;99913.34;5004697;28;20317;-78
2023/04/17 06:45:41;;;;;;;32.88;23.83;;;;;;;11.45;nan;99917.47;4987508;28;20199;-77
2023/04/17 06:48:06;;;;;;;35.60;22.15;;;;;;;11.45;nan;99909.56;5006370;28;20304;-77
2023/04/17 06:50:31;;;;;;;34.63;22.60;;;;;;;11.47;nan;99916.44;5006060;28;20285;-78
2023/04/17 06:52:57;;;;;;;30.67;23.13;;;;;;;11.46;nan;99908.66;5007389;28;20264;-78
2023/04/17 06:55:22;;;;;;;37.67;22.00;;;;;;;11.44;nan;99910.53;5004255;28;20338;-77
2023/04/17 06:57:47;;;;;;;34.70;22.10;;;;;;;11.42;nan;99915.91;5003225;28;20202;-77
2023/04/17 07:00:13;;;;;;;32.53;23.03;;;;;;;11.46;nan;99914.75;5007936;28;20241;-77
2023/04/17 07:02:39;;;;;;;33.33;21.50;;;;;;;11.52;nan;99911.75;5000357;28;20221;-77
2023/04/17 07:05:05;;;;;;;38.70;22.83;;;;;;;11.59;nan;99914.00;5003635;28;20813;-77
2023/04/17 07:07:33;;;;;;;33.28;20.73;;;;;;;11.60;nan;99916.53;5001387;28;21250;-77
2023/04/17 07:09:59;;;;;;;29.58;21.90;;;;;;;11.60;nan;99919.16;5004192;28;20209;-78
2023/04/17 07:12:25;;;;;;;38.33;23.93;;;;;;;11.63;nan;99921.59;5005784;28;20284;-78
2023/04/17 07:14:51;;;;;;;39.58;24.63;;;;;;;11.70;nan;99933.44;5003912;28;20726;-78
2023/04/17 07:17:16;;;;;;;36.60;23.27;;;;;;;11.71;nan;99935.09;5003138;28;20203;-77
2023/04/17 07:19:42;;;;;;;34.30;23.73;;;;;;;11.73;nan;99935.88;5003190;28;20298;-78
2023/04/17 07:22:08;;;;;;;37.40;21.50;;;;;;;11.80;nan;99931.06;5005021;28;20469;-78
2023/04/17 07:24:34;;;;;;;35.85;21.02;;;;;;;11.91;nan;99925.16;5005691;28;20223;-77
2023/04/17 07:27:03;;;;;;;32.80;22.93;;;;;;;12.00;nan;99934.25;5007166;28;20322;-78
2023/04/17 07:29:29;;;;;;;27.58;20.35;;;;;;;12.11;nan;99932.59;5002419;28;20875;-77
2023/04/17 07:31:55;;;;;;;28.63;21.73;;;;;;;12.24;nan;99926.53;5004386;28;20268;-78
2023/04/17 07:34:20;;;;;;;27.43;19.83;;;;;;;12.32;nan;99934.78;5003305;28;20465;-77
2023/04/17 07:36:48;;;;;;;32.20;19.33;;;;;;;12.42;nan;99922.66;5004280;28;20339;-77
2023/04/17 07:39:14;;;;;;;26.00;19.23;;;;;;;12.50;nan;99925.66;5004237;28;20330;-77
2023/04/17 07:41:39;;;;;;;30.40;18.97;;;;;;;12.52;nan;99920.28;4987084;28;20672;-77
2023/04/17 07:44:05;;;;;;;25.30;17.00;;;;;;;12.44;nan;99927.84;5004652;28;20903;-77
2023/04/17 07:46:31;;;;;;;30.23;18.30;;;;;;;12.37;nan;99922.16;5005115;28;21170;-77
2023/04/17 07:48:57;;;;;;;22.53;16.53;;;;;;;12.39;nan;99925.50;5003622;28;20202;-76
2023/04/17 07:51:22;;;;;;;22.20;16.08;;;;;;;12.43;nan;99928.81;5004036;28;20199;-77
2023/04/17 07:53:48;;;;;;;23.40;15.03;;;;;;;12.50;nan;99923.03;5004387;28;20205;-77
2023/04/17 07:56:13;;;;;;;22.77;16.23;;;;;;;12.73;nan;99928.53;5004802;28;20253;-77
2023/04/17 07:58:39;;;;;;;21.97;17.17;;;;;;;12.98;nan;99925.09;5001871;28;20437;-77
2023/04/17 08:01:04;;;;;;;23.47;15.57;;;;;;;13.32;nan;99920.16;5003908;28;20623;-77
2023/04/17 08:03:30;;;;;;;23.30;15.47;;;;;;;13.56;nan;99922.88;5002916;28;20198;-77
2023/04/17 08:05:56;;;;;;;23.40;14.80;;;;;;;13.99;nan;99922.38;5005688;28;20202;-77
2023/04/17 08:08:22;;;;;;;26.60;14.20;;;;;;;14.55;nan;99912.94;5003917;28;20584;-77
2023/04/17 08:10:48;;;;;;;21.70;13.70;;;;;;;14.94;nan;99913.53;5007136;28;20215;-77
2023/04/17 08:13:13;;;;;;;20.93;14.20;;;;;;;15.10;nan;99920.28;5002790;28;20580;-77
2023/04/17 08:15:39;;;;;;;23.63;14.67;;;;;;;15.12;nan;99916.56;5000012;28;20659;-77
2023/04/17 08:18:06;;;;;;;18.77;13.73;;;;;;;15.01;nan;99921.81;5006741;28;20198;-77
2023/04/17 08:20:32;;;;;;;21.27;14.95;;;;;;;14.73;nan;99928.38;5005884;28;20839;-77
2023/04/17 08:22:58;;;;;;;19.45;12.40;;;;;;;14.47;nan;99935.59;5005806;28;20535;-77
2023/04/17 08:25:24;;;;;;;18.97;13.37;;;;;;;14.22;nan;99936.56;5002956;28;20199;-77
2023/04/17 08:27:49;;;;;;;18.37;13.27;;;;;;;14.01;nan;99934.53;5005148;28;20207;-78
2023/04/17 08:30:16;;;;;;;16.00;12.70;;;;;;;13.85;nan;99929.53;5008102;28;20684;-76
2023/04/17 08:32:45;;;;;;;19.92;13.77;;;;;;;13.75;nan;99941.72;4999364;28;20179;-77
2023/04/17 08:35:12;;;;;;;16.17;12.32;;;;;;;13.57;nan;99935.09;5003728;28;20242;-77
2023/04/17 08:37:41;;;;;;;20.48;13.40;;;;;;;13.39;nan;99938.06;5004544;28;20294;-77
2023/04/17 08:40:08;;;;;;;16.77;11.65;;;;;;;13.31;nan;99932.47;5005268;28;20207;-77
2023/04/17 08:42:35;;;;;;;16.75;12.20;;;;;;;13.24;nan;99937.31;5001641;28;20206;-77
2023/04/17 08:45:08;;;;;;;16.95;12.00;;;;;;;13.19;nan;99933.31;5003577;28;20198;-77
2023/04/17 08:47:33;;;;;;;19.05;14.52;;;;;;;13.17;nan;99933.41;5005460;28;20510;-77
2023/04/17 08:50:06;;;;;;;18.37;11.20;;;;;;;13.22;nan;99933.09;5006383;28;20210;-77
2023/04/17 08:52:31;;;;;;;16.15;10.98;;;;;;;13.30;nan;99928.16;5004771;28;20199;-77
2023/04/17 08:54:59;;;;;;;14.50;10.63;;;;;;;13.35;nan;99926.03;5007731;28;20572;-77
2023/04/17 08:57:24;;;;;;;15.55;10.45;;;;;;;13.38;nan;99935.53;5003576;28;20254;-77
2023/04/17 08:59:50;;;;;;;12.70;9.70;;;;;;;13.40;nan;99931.00;5005589;28;20699;-77
2023/04/17 09:02:15;;;;;;;12.13;9.20;;;;;;;13.42;nan;99931.72;5002436;28;20228;-77
2023/04/17 09:04:45;;;;;;;13.33;9.30;;;;;;;13.41;nan;99932.69;5005589;28;20758;-77
2023/04/17 09:07:14;;;;;;;10.90;8.48;;;;;;;13.40;nan;99931.84;5004787;28;20221;-77
2023/04/17 09:09:54;;;;;;;13.50;9.13;;;;;;;13.40;nan;99937.13;5010043;28;20218;-77
2023/04/17 09:12:23;;;;;;;6.68;5.95;;;;;;;13.31;nan;99924.56;5008775;28;20217;-77
2023/04/17 09:14:49;;;;;;;6.93;5.15;;;;;;;13.27;nan;99937.13;5005860;28;20204;-77
2023/04/17 09:17:16;;;;;;;7.00;4.40;;;;;;;13.34;nan;99924.38;5007101;28;20199;-77
2023/04/17 09:20:01;;;;;;;6.07;3.97;;;;;;;13.40;nan;99934.50;5009873;28;20225;-77
2023/04/17 09:22:26;;;;;;;10.43;5.43;;;;;;;13.40;nan;99931.84;5010906;28;20233;-77
2023/04/17 09:24:52;;;;;;;7.67;6.00;;;;;;;13.46;nan;99931.41;5011329;28;20207;-77
2023/04/17 09:27:21;;;;;;;10.23;8.63;;;;;;;13.55;nan;99934.34;5009579;28;20210;-78
2023/04/17 09:30:02;;;;;;;13.02;9.43;;;;;;;13.55;nan;99932.56;5011574;28;20309;-78
2023/04/17 09:32:31;;;;;;;14.10;9.05;;;;;;;13.56;nan;99928.97;5005658;28;20204;-77
2023/04/17 09:34:59;;;;;;;13.57;9.00;;;;;;;13.62;nan;99936.44;5003237;28;20201;-77
2023/04/17 09:37:26;;;;;;;12.90;9.75;;;;;;;13.54;nan;99930.03;5002368;28;20249;-77
2023/04/17 09:40:05;;;;;;;12.55;9.65;;;;;;;13.57;nan;99935.09;5005060;28;20231;-77
2023/04/17 09:42:31;;;;;;;11.40;8.65;;;;;;;13.63;nan;99932.84;5001326;28;20682;-77
2023/04/17 09:44:56;;;;;;;9.63;7.40;;;;;;;13.75;nan;99932.94;5003338;28;20290;-78
2023/04/17 09:47:22;;;;;;;9.70;6.90;;;;;;;13.87;nan;99932.06;5003551;28;20296;-78
2023/04/17 09:49:51;;;;;;;6.20;5.10;;;;;;;13.84;nan;99934.91;5006274;28;20630;-77
2023/04/17 09:52:17;;;;;;;2.65;2.45;;;;;;;13.78;nan;99930.09;5003299;28;20571;-77
2023/04/17 09:54:45;;;;;;;4.10;2.65;;;;;;;13.86;nan;99933.03;5004269;28;20256;-77
2023/04/17 09:57:11;;;;;;;3.80;2.47;;;;;;;13.86;nan;99918.00;5003770;28;20191;-77
2023/04/17 09:59:44;;;;;;;4.47;4.07;;;;;;;13.88;nan;99918.75;5006880;28;20222;-77
2023/04/17 10:02:12;;;;;;;3.38;3.08;;;;;;;13.87;nan;99922.31;5008873;28;20213;-77
2023/04/17 10:04:41;;;;;;;4.35;2.80;;;;;;;13.90;nan;99926.53;5007890;28;20520;-77
2023/04/17 10:07:07;;;;;;;3.50;2.88;;;;;;;13.87;nan;99917.03;5007366;28;20214;-77
2023/04/17 10:09:32;;;;;;;4.20;3.50;;;;;;;13.90;nan;99922.09;5009641;28;20215;-78
2023/04/17 10:12:00;;;;;;;4.87;3.50;;;;;;;13.93;nan;99918.41;5015969;28;20310;-77
2023/04/17 10:14:31;;;;;;;4.75;3.50;;;;;;;14.00;nan;99916.16;5016499;28;20706;-78
2023/04/17 10:16:57;;;;;;;4.00;3.55;;;;;;;14.01;nan;99917.84;5016364;28;20202;-78
2023/04/17 10:19:35;;;;;;;4.03;2.70;;;;;;;14.04;nan;99918.47;5002541;28;20578;-77
2023/04/17 10:22:18;;;;;;;3.55;3.05;;;;;;;13.95;nan;99908.56;5020326;28;20461;-77
2023/04/17 10:24:46;;;;;;;4.45;3.20;;;;;;;13.94;nan;99907.75;5020224;28;20209;-77
2023/04/17 10:27:23;;;;;;;4.40;3.10;;;;;;;13.98;nan;99910.16;5016164;28;20629;-77
2023/04/17 10:29:56;;;;;;;4.78;3.08;;;;;;;14.08;nan;99913.81;5006440;28;20213;-77
2023/04/17 10:32:30;;;;;;;4.45;3.20;;;;;;;14.13;nan;99901.94;5002589;28;20188;-78
2023/04/17 10:35:00;;;;;;;4.47;3.00;;;;;;;14.19;nan;99905.09;4994631;28;20210;-78
2023/04/17 10:37:48;;;;;;;5.05;3.20;;;;;;;14.14;nan;99908.06;4997680;28;20213;-78
2023/04/17 10:40:21;;;;;;;3.38;3.08;;;;;;;14.15;nan;99907.13;4998781;28;20246;-78
2023/04/17 10:43:10;;;;;;;4.22;2.70;;;;;;;14.31;nan;99907.69;4999169;28;20687;-78
2023/04/17 10:45:58;;;;;;;4.00;3.60;;;;;;;14.37;nan;99903.75;4997741;28;20683;-78
2023/04/17 10:48:39;;;;;;;3.47;2.85;;;;;;;14.42;nan;99903.38;5000130;28;20572;-78
2023/04/17 10:51:20;;;;;;;4.43;3.00;;;;;;;14.45;nan;99900.53;4999314;28;20217;-78
2023/04/17 10:53:46;;;;;;;2.72;2.35;;;;;;;14.45;nan;99900.53;4998538;28;20773;-78
2023/04/17 10:56:18;;;;;;;3.33;2.65;;;;;;;14.28;nan;99897.31;4995283;28;20199;-78
2023/04/17 10:59:03;;;;;;;2.97;2.67;;;;;;;14.14;nan;99902.78;4999665;28;20567;-78
2023/04/17 11:01:30;;;;;;;5.90;3.22;;;;;;;13.95;nan;99903.28;5001740;28;20686;-78
2023/04/17 11:03:59;;;;;;;3.92;2.78;;;;;;;13.90;nan;99902.78;5000286;28;20496;-78
2023/04/17 11:06:36;;;;;;;3.13;2.22;;;;;;;13.84;nan;99906.72;5005896;28;20575;-78
2023/04/17 11:09:06;;;;;;;3.97;2.70;;;;;;;13.76;nan;99898.50;5006589;28;20198;-78
2023/04/17 11:11:41;;;;;;;3.80;3.00;;;;;;;13.73;nan;99906.66;5009193;28;20289;-78
2023/04/17 11:14:11;;;;;;;3.28;2.38;;;;;;;13.79;nan;99906.19;5007926;28;20459;-78
2023/04/17 11:16:39;;;;;;;3.03;2.72;;;;;;;13.91;nan;99901.84;5007086;28;20205;-78
2023/04/17 11:19:05;;;;;;;2.65;2.35;;;;;;;14.04;nan;99901.78;5010730;28;20253;-78
2023/04/17 11:21:31;;;;;;;3.37;2.83;;;;;;;14.13;nan;99899.31;5008628;28;20207;-78
2023/04/17 11:24:00;;;;;;;3.00;2.10;;;;;;;14.19;nan;99900.66;5006161;28;20485;-78
2023/04/17 11:26:26;;;;;;;2.15;1.95;;;;;;;14.21;nan;99887.34;5008017;28;20706;-78
2023/04/17 11:28:52;;;;;;;3.50;2.27;;;;;;;14.23;nan;99893.31;5008003;28;20222;-78
2023/04/17 11:31:17;;;;;;;1.87;1.77;;;;;;;14.19;nan;99892.72;5005140;28;20203;-78
2023/04/17 11:33:42;;;;;;;2.27;1.87;;;;;;;14.22;nan;99896.94;5007247;28;20667;-78
2023/04/17 11:36:09;;;;;;;2.33;2.13;;;;;;;14.37;nan;99891.34;5006638;28;20452;-78
2023/04/17 11:38:35;;;;;;;2.42;2.00;;;;;;;14.60;nan;99894.94;5008359;28;20190;-78